createdAt,value
2022-11-02T00:02:11.904Z,82.28
2022-11-02T00:05:23.971Z,82.33
2022-11-02T00:08:30.102Z,82.22
2022-11-02T00:11:37.551Z,82.45
2022-11-02T00:14:43.749Z,82.76
2022-11-02T00:17:52.463Z,82.59
2022-11-02T00:20:58.910Z,82.58
2022-11-02T00:24:07.198Z,82.67
2022-11-02T00:27:13.692Z,82.82
2022-11-02T00:30:19.894Z,82.77
2022-11-02T00:33:25.950Z,82.83
2022-11-02T00:36:32.135Z,82.88
2022-11-02T00:39:38.173Z,83.04
2022-11-02T00:42:44.255Z,83.05
2022-11-02T00:45:50.285Z,82.94
2022-11-02T00:48:56.460Z,83.06
2022-11-02T00:52:03.389Z,83.21
2022-11-02T00:55:09.277Z,83.17
2022-11-02T00:58:13.793Z,83.21
2022-11-02T01:01:19.972Z,83.29
2022-11-02T01:04:24.846Z,83.43
2022-11-02T01:07:32.087Z,83.37
2022-11-02T01:10:39.045Z,83.48
2022-11-02T01:13:47.219Z,83.59
2022-11-02T01:16:53.291Z,83.69
2022-11-02T01:19:59.418Z,83.65
2022-11-02T01:23:05.577Z,83.74
2022-11-02T01:26:12.803Z,83.70
2022-11-02T01:29:19.418Z,83.61
2022-11-02T01:32:25.544Z,83.76
2022-11-02T01:35:31.580Z,83.84
2022-11-02T01:38:37.610Z,83.76
2022-11-02T01:41:43.917Z,83.87
2022-11-02T01:44:48.714Z,83.99
2022-11-02T01:47:54.952Z,84.02
2022-11-02T01:51:04.097Z,83.88
2022-11-02T01:54:14.171Z,83.95
2022-11-02T01:57:23.276Z,84.11
2022-11-02T02:00:29.422Z,84.03
2022-11-02T02:03:37.282Z,84.07
2022-11-02T02:06:45.247Z,84.16
2022-11-02T02:09:51.705Z,84.25
2022-11-02T02:12:57.983Z,84.23
2022-11-02T02:16:06.793Z,84.09
2022-11-02T02:19:25.162Z,84.20
2022-11-02T02:22:57.805Z,84.22
2022-11-02T02:26:39.644Z,84.29
2022-11-02T02:30:02.095Z,84.31
2022-11-02T02:33:13.783Z,84.43
2022-11-02T02:36:26.221Z,84.33
2022-11-02T02:39:37.797Z,84.31
2022-11-02T02:42:50.314Z,84.52
2022-11-02T02:46:01.712Z,84.45
2022-11-02T02:49:09.926Z,84.49
2022-11-02T02:52:19.556Z,84.61
2022-11-02T02:55:30.934Z,84.58
2022-11-02T02:58:43.771Z,84.72
2022-11-02T03:01:51.390Z,84.73
2022-11-02T03:04:57.591Z,84.71
2022-11-02T03:08:09.075Z,84.62
2022-11-02T03:11:18.413Z,84.67
2022-11-02T03:14:38.769Z,84.73
2022-11-02T03:18:04.281Z,84.69
2022-11-02T03:21:23.646Z,84.88
2022-11-02T03:24:37.985Z,84.94
2022-11-02T03:27:54.762Z,84.69
2022-11-02T03:31:08.329Z,84.57
2022-11-02T03:34:24.434Z,84.55
2022-11-02T03:37:31.033Z,84.67
2022-11-02T03:40:41.686Z,84.73
2022-11-02T03:43:50.335Z,84.59
2022-11-02T03:47:00.898Z,84.56
2022-11-02T03:50:10.509Z,84.52
2022-11-02T03:53:24.049Z,84.81
2022-11-02T03:56:35.130Z,84.76
2022-11-02T03:59:41.609Z,84.85
2022-11-02T04:02:50.481Z,84.82
2022-11-02T04:05:56.788Z,84.66
2022-11-02T04:09:03.181Z,84.58
2022-11-02T04:12:27.235Z,84.83
2022-11-02T04:15:33.373Z,84.90
2022-11-02T04:18:56.971Z,84.86
2022-11-02T04:22:20.748Z,84.81
2022-11-02T04:25:27.017Z,84.80
2022-11-02T04:28:31.764Z,84.84
2022-11-02T04:31:37.903Z,84.65
2022-11-02T04:34:43.842Z,84.83
2022-11-02T04:38:07.891Z,84.86
2022-11-02T04:41:33.878Z,84.70
2022-11-02T04:44:40.106Z,84.83
2022-11-02T04:47:46.219Z,84.99
2022-11-02T04:50:52.344Z,84.81
2022-11-02T04:53:59.252Z,84.78
2022-11-02T04:57:05.493Z,84.82
2022-11-02T05:00:11.201Z,84.79
2022-11-02T05:03:17.382Z,84.58
2022-11-02T05:06:24.584Z,84.60
2022-11-02T05:09:30.636Z,84.61
2022-11-02T05:12:36.850Z,84.53
2022-11-02T05:15:43.320Z,84.50
2022-11-02T05:18:49.553Z,84.68
2022-11-02T05:21:55.632Z,84.49
2022-11-02T05:25:01.693Z,84.40
2022-11-02T05:28:08.177Z,84.31
2022-11-02T05:31:14.429Z,84.37
2022-11-02T05:34:20.575Z,84.54
2022-11-02T05:37:26.664Z,84.54
2022-11-02T05:40:33.875Z,84.57
2022-11-02T05:43:40.096Z,84.52
2022-11-02T05:46:47.414Z,84.62
2022-11-02T05:49:53.561Z,84.58
2022-11-02T05:52:59.694Z,84.64
2022-11-02T05:56:08.019Z,84.74
2022-11-02T05:59:14.341Z,84.82
2022-11-02T06:02:21.934Z,84.83
2022-11-02T06:05:30.021Z,84.78
2022-11-02T06:08:37.303Z,84.83
2022-11-02T06:11:43.351Z,84.82
2022-11-02T06:14:49.383Z,84.75
2022-11-02T06:17:55.581Z,84.80
2022-11-02T06:21:01.935Z,84.80
2022-11-02T06:24:06.621Z,84.83
2022-11-02T06:27:12.745Z,84.75
2022-11-02T06:30:19.142Z,84.93
2022-11-02T06:33:25.410Z,85.03
2022-11-02T06:36:31.662Z,85.10
2022-11-02T06:43:03.293Z,85.06
2022-11-02T06:46:09.752Z,85.25
2022-11-02T06:49:15.856Z,85.26
2022-11-02T06:52:21.809Z,85.31
2022-11-02T06:55:28.003Z,85.34
2022-11-02T06:58:34.123Z,85.42
2022-11-02T07:01:40.264Z,85.35
2022-11-02T07:04:44.877Z,85.51
2022-11-02T07:07:53.747Z,85.63
2022-11-02T07:11:00.102Z,85.70
2022-11-02T07:14:04.590Z,85.81
2022-11-02T07:17:10.759Z,86.05
2022-11-02T07:20:17.426Z,86.15
2022-11-02T07:23:24.280Z,86.32
2022-11-02T07:26:30.813Z,86.28
2022-11-02T07:29:36.823Z,86.42
2022-11-02T07:32:47.038Z,86.70
2022-11-02T07:35:53.101Z,86.71
2022-11-02T07:38:59.123Z,87.00
2022-11-02T07:42:07.235Z,87.16
2022-11-02T07:45:14.069Z,87.48
2022-11-02T07:48:20.281Z,87.63
2022-11-02T07:51:26.901Z,87.45
2022-11-02T07:54:32.989Z,87.95
2022-11-02T07:57:39.002Z,88.24
2022-11-02T08:00:45.329Z,88.40
2022-11-02T08:03:49.782Z,88.53
2022-11-02T08:06:56.087Z,88.52
2022-11-02T08:10:00.646Z,88.46
2022-11-02T08:13:07.036Z,88.32
2022-11-02T08:16:13.146Z,88.50
2022-11-02T08:19:19.270Z,88.36
2022-11-02T08:22:25.361Z,88.36
2022-11-02T08:25:31.699Z,88.40
2022-11-02T08:28:40.219Z,88.36
2022-11-02T08:31:46.338Z,88.56
2022-11-02T08:34:52.369Z,88.47
2022-11-02T08:38:00.075Z,88.53
2022-11-02T08:41:06.596Z,88.41
2022-11-02T08:44:12.709Z,88.47
2022-11-02T08:47:19.289Z,88.47
2022-11-02T08:50:26.508Z,88.46
2022-11-02T08:53:32.981Z,88.52
2022-11-02T08:56:39.098Z,88.50
2022-11-02T08:59:43.597Z,88.63
2022-11-02T09:03:01.711Z,88.52
2022-11-02T09:06:08.386Z,88.56
2022-11-02T09:09:14.722Z,88.45
2022-11-02T09:12:20.686Z,88.44
2022-11-02T09:15:26.790Z,88.33
2022-11-02T09:18:33.344Z,88.24
2022-11-02T09:21:40.087Z,88.17
2022-11-02T09:24:46.157Z,88.10
2022-11-02T09:27:55.862Z,88.05
2022-11-02T09:31:03.826Z,88.14
2022-11-02T09:34:12.308Z,88.04
2022-11-02T09:37:16.953Z,87.94
2022-11-02T09:40:25.210Z,87.95
2022-11-02T09:43:42.012Z,87.79
2022-11-02T09:47:09.260Z,87.64
2022-11-02T09:50:19.967Z,87.51
2022-11-02T09:53:35.216Z,87.45
2022-11-02T09:56:41.997Z,87.40
2022-11-02T09:59:48.317Z,87.35
2022-11-02T10:03:03.282Z,87.35
2022-11-02T10:06:15.851Z,87.23
2022-11-02T10:09:30.815Z,87.12
2022-11-02T10:12:44.056Z,87.00
2022-11-02T10:15:54.450Z,86.99
2022-11-02T10:19:00.982Z,86.97
2022-11-02T10:22:09.956Z,86.88
2022-11-02T10:25:19.055Z,86.70
2022-11-02T10:28:32.682Z,86.54
2022-11-02T10:31:39.291Z,86.57
2022-11-02T10:34:58.728Z,86.35
2022-11-02T10:38:26.203Z,86.45
2022-11-02T10:41:50.907Z,86.31
2022-11-02T10:45:15.092Z,86.22
2022-11-02T10:48:30.577Z,85.96
2022-11-02T10:51:36.879Z,85.78
2022-11-02T10:54:43.382Z,85.62
2022-11-02T10:57:50.575Z,85.40
2022-11-02T11:01:08.180Z,85.12
2022-11-02T11:04:25.746Z,84.96
2022-11-02T11:07:32.351Z,84.61
2022-11-02T11:10:44.327Z,84.29
2022-11-02T11:20:58.958Z,83.53
2022-11-02T11:24:25.435Z,83.35
2022-11-02T11:27:31.554Z,82.94
2022-11-02T11:34:04.184Z,82.10
2022-11-02T11:37:13.902Z,81.70
2022-11-02T11:40:22.610Z,81.70
2022-11-02T11:43:31.920Z,81.28
2022-11-02T11:46:46.964Z,81.09
2022-11-02T11:50:12.940Z,80.40
2022-11-02T11:53:23.488Z,80.16
2022-11-02T11:56:29.985Z,79.51
2022-11-02T11:59:49.199Z,79.45
2022-11-02T12:03:06.991Z,79.18
2022-11-02T12:06:22.806Z,78.70
2022-11-02T12:09:35.422Z,78.06
2022-11-02T12:13:00.525Z,77.62
2022-11-02T12:16:16.194Z,77.41
2022-11-02T12:19:34.092Z,76.96
2022-11-02T12:22:51.456Z,76.72
2022-11-02T12:26:06.345Z,76.26
2022-11-02T12:29:32.872Z,75.97
2022-11-02T12:32:50.670Z,75.70
2022-11-02T12:36:25.142Z,75.52
2022-11-02T12:39:41.945Z,74.93
2022-11-02T12:42:57.348Z,74.73
2022-11-02T12:46:08.825Z,74.55
2022-11-02T12:49:31.221Z,74.20
2022-11-02T12:52:51.860Z,73.96
2022-11-02T12:56:02.044Z,73.56
2022-11-02T12:59:14.402Z,73.06
2022-11-02T13:02:26.633Z,72.76
2022-11-02T13:05:39.149Z,72.54
2022-11-02T13:08:51.266Z,72.04
2022-11-02T13:12:04.802Z,71.89
2022-11-02T13:15:19.000Z,71.69
2022-11-02T13:18:31.553Z,71.41
2022-11-02T13:21:44.319Z,71.22
2022-11-02T13:24:54.633Z,70.99
2022-11-02T13:28:05.843Z,70.80
2022-11-02T13:31:17.842Z,70.52
2022-11-02T13:34:33.967Z,70.29
2022-11-02T13:37:44.894Z,70.21
2022-11-02T13:40:58.750Z,69.88
2022-11-02T13:44:22.730Z,69.74
2022-11-02T13:47:52.039Z,69.59
2022-11-02T13:51:01.364Z,69.34
2022-11-02T13:54:14.016Z,69.29
2022-11-02T13:57:34.609Z,69.04
2022-11-02T14:00:45.604Z,68.98
2022-11-02T14:04:01.454Z,68.98
2022-11-02T14:07:10.632Z,68.77
2022-11-02T14:10:19.982Z,68.79
2022-11-02T14:14:17.059Z,68.72
2022-11-02T14:17:23.208Z,68.53
2022-11-02T14:20:37.157Z,68.48
2022-11-02T14:23:43.696Z,68.25
2022-11-02T14:26:59.298Z,68.15
2022-11-02T14:30:05.780Z,68.14
2022-11-02T14:33:18.784Z,68.07
2022-11-02T14:36:40.589Z,68.03
2022-11-02T14:39:54.414Z,67.99
2022-11-02T14:43:22.566Z,67.87
2022-11-02T14:46:48.622Z,67.86
2022-11-02T14:49:57.506Z,67.87
2022-11-02T14:53:09.139Z,67.92
2022-11-02T14:56:15.950Z,67.82
2022-11-02T14:59:26.697Z,67.65
2022-11-02T15:02:38.640Z,67.70
2022-11-02T15:05:48.648Z,67.69
2022-11-02T15:08:57.170Z,67.76
2022-11-02T15:12:22.601Z,67.93
2022-11-02T15:15:36.428Z,67.87
2022-11-02T15:18:42.817Z,67.82
2022-11-02T15:21:50.494Z,67.85
2022-11-02T15:24:58.777Z,67.84
2022-11-02T15:28:13.291Z,67.99
2022-11-02T15:31:25.875Z,67.98
2022-11-02T15:34:38.214Z,68.06
2022-11-02T15:38:11.281Z,68.14
2022-11-02T15:41:25.434Z,68.17
2022-11-02T15:45:14.298Z,68.26
2022-11-02T15:48:41.278Z,68.37
2022-11-02T15:51:55.385Z,68.47
2022-11-02T15:55:12.755Z,68.29
2022-11-02T15:58:33.636Z,68.34
2022-11-02T16:01:41.081Z,68.43
2022-11-02T16:04:51.594Z,68.66
2022-11-02T16:08:20.784Z,68.65
2022-11-02T16:11:25.926Z,68.73
2022-11-02T16:14:34.222Z,68.62
2022-11-02T16:17:40.643Z,68.74
2022-11-02T16:20:48.234Z,68.76
2022-11-02T16:23:59.530Z,68.52
2022-11-02T16:27:10.585Z,68.59
2022-11-02T16:30:24.581Z,68.58
2022-11-02T16:33:32.963Z,68.84
2022-11-02T16:36:40.622Z,68.76
2022-11-02T16:39:49.143Z,68.90
2022-11-02T16:42:56.150Z,69.14
2022-11-02T16:46:05.088Z,69.11
2022-11-02T16:49:19.786Z,69.22
2022-11-02T16:52:29.192Z,69.14
2022-11-02T16:55:44.468Z,69.12
2022-11-02T16:59:00.009Z,69.21
2022-11-02T17:02:13.341Z,69.34
2022-11-02T17:05:22.065Z,69.52
2022-11-02T17:08:34.430Z,69.47
2022-11-02T17:11:44.813Z,69.71
2022-11-02T17:14:52.118Z,69.71
2022-11-02T17:18:25.159Z,70.05
2022-11-02T17:21:32.441Z,70.00
2022-11-02T17:24:39.086Z,69.97
2022-11-02T17:27:45.274Z,70.00
2022-11-02T17:30:50.132Z,70.14
2022-11-02T17:33:58.142Z,70.24
2022-11-02T17:37:04.514Z,70.36
2022-11-02T17:40:14.145Z,70.76
2022-11-02T17:43:20.616Z,70.87
2022-11-02T17:46:26.846Z,71.16
2022-11-02T17:49:32.915Z,70.97
2022-11-02T17:52:39.845Z,71.05
2022-11-02T17:55:45.953Z,71.09
2022-11-02T17:58:50.431Z,71.35
2022-11-02T18:01:56.640Z,71.52
2022-11-02T18:05:02.808Z,71.67
2022-11-02T18:08:09.121Z,71.40
2022-11-02T18:11:15.331Z,71.27
2022-11-02T18:14:21.498Z,71.50
2022-11-02T18:17:31.091Z,71.45
2022-11-02T18:20:42.311Z,71.58
2022-11-02T18:23:48.732Z,71.69
2022-11-02T18:26:55.662Z,71.62
2022-11-02T18:30:01.863Z,71.67
2022-11-02T18:33:10.753Z,72.18
2022-11-02T18:36:19.745Z,72.49
2022-11-02T18:39:26.003Z,72.38
2022-11-02T18:42:32.804Z,72.25
2022-11-02T18:45:38.901Z,72.24
2022-11-02T18:48:45.067Z,72.36
2022-11-02T18:51:49.453Z,72.57
2022-11-02T18:54:56.116Z,72.46
2022-11-02T18:58:02.613Z,72.62
2022-11-02T19:01:14.355Z,72.50
2022-11-02T19:04:20.619Z,72.58
2022-11-02T19:07:42.601Z,72.62
2022-11-02T19:10:49.651Z,72.72
2022-11-02T19:13:55.856Z,72.81
2022-11-02T19:17:00.353Z,72.91
2022-11-02T19:20:07.551Z,72.93
2022-11-02T19:23:13.700Z,72.82
2022-11-02T19:26:18.277Z,72.77
2022-11-02T19:29:24.474Z,72.73
2022-11-02T19:32:29.026Z,72.88
2022-11-02T19:35:35.810Z,72.84
2022-11-02T19:38:42.373Z,72.78
2022-11-02T19:41:52.422Z,72.64
2022-11-02T19:44:58.558Z,72.72
2022-11-02T19:48:04.628Z,72.82
2022-11-02T19:51:15.817Z,72.74
2022-11-02T19:54:25.623Z,72.81
2022-11-02T19:57:33.394Z,72.64
2022-11-02T20:00:39.718Z,72.62
2022-11-02T20:03:44.687Z,72.44
2022-11-02T20:06:50.848Z,72.49
2022-11-02T20:09:58.688Z,72.57
2022-11-02T20:13:05.887Z,72.57
2022-11-02T20:16:13.783Z,72.66
2022-11-02T20:19:19.852Z,72.73
2022-11-02T20:22:26.026Z,72.66
2022-11-02T20:25:30.515Z,72.63
2022-11-02T20:28:40.038Z,72.69
2022-11-02T20:31:46.211Z,72.55
2022-11-02T20:34:50.832Z,72.45
2022-11-02T20:37:58.000Z,72.46
2022-11-02T20:41:12.595Z,72.49
2022-11-02T20:44:20.992Z,72.50
2022-11-02T20:47:27.401Z,72.45
2022-11-02T20:50:33.888Z,72.44
2022-11-02T20:53:40.270Z,72.41
2022-11-02T20:56:46.448Z,72.36
2022-11-02T20:59:50.929Z,72.27
2022-11-02T21:02:57.129Z,72.28
2022-11-02T21:06:03.238Z,72.41
2022-11-02T21:09:12.097Z,72.29
2022-11-02T21:12:36.946Z,72.17
2022-11-02T21:15:43.190Z,72.29
2022-11-02T21:18:49.499Z,72.16
2022-11-02T21:21:59.747Z,72.20
2022-11-02T21:25:07.366Z,72.06
2022-11-02T21:28:13.563Z,72.23
2022-11-02T21:31:19.456Z,72.13
2022-11-02T21:34:25.610Z,72.09
2022-11-02T21:37:30.337Z,72.04
2022-11-02T21:40:36.392Z,72.11
2022-11-02T21:43:42.391Z,72.23
2022-11-02T21:46:48.525Z,72.18
2022-11-02T21:49:53.038Z,72.08
2022-11-02T21:52:59.551Z,72.02
2022-11-02T21:56:07.850Z,72.08
2022-11-02T21:59:13.971Z,72.02
2022-11-02T22:02:19.129Z,71.94
2022-11-02T22:05:39.141Z,71.91
2022-11-02T22:08:45.818Z,71.98
2022-11-02T22:12:14.406Z,72.03
2022-11-02T22:15:20.538Z,71.95
2022-11-02T22:18:25.016Z,71.91
2022-11-02T22:21:32.417Z,71.93
2022-11-02T22:24:42.138Z,71.84
2022-11-02T22:27:50.839Z,71.86
2022-11-02T22:30:55.288Z,71.97
2022-11-02T22:34:04.954Z,71.95
2022-11-02T22:37:28.708Z,71.89
2022-11-02T22:40:34.834Z,71.83
2022-11-02T22:43:39.393Z,71.80
2022-11-02T22:46:47.258Z,71.77
2022-11-02T22:49:53.251Z,71.83
2022-11-02T22:52:59.398Z,71.84
2022-11-02T22:56:07.687Z,71.80
2022-11-02T22:59:14.037Z,71.79
2022-11-02T23:02:20.183Z,71.85
2022-11-02T23:05:24.693Z,71.77
2022-11-02T23:08:31.698Z,71.88
2022-11-02T23:11:38.878Z,71.90
2022-11-02T23:14:44.950Z,71.83
2022-11-02T23:17:52.590Z,71.88
2022-11-02T23:20:58.660Z,71.86
2022-11-02T23:24:23.177Z,71.70
2022-11-02T23:27:29.806Z,71.82
2022-11-02T23:30:55.487Z,71.74
2022-11-02T23:34:00.006Z,71.79
2022-11-02T23:37:08.042Z,71.77
2022-11-02T23:40:16.332Z,71.68
2022-11-02T23:43:22.466Z,71.80
2022-11-02T23:46:27.011Z,71.88
2022-11-02T23:49:33.068Z,71.84
2022-11-02T23:52:57.565Z,71.86
2022-11-02T23:56:22.266Z,71.84
2022-11-02T23:59:29.258Z,71.75
